ENRX weather

Hønefoss Heliport, Ringerike Hospital
Hønefoss, Buskerud, Norway

Public forecast

Using degrees Celsius for public forecast. Weather courtesy of forecast.io.

Closest aviation weather report (METAR) to Hønefoss Heliport, Ringerike Hospital

Closest report is Oslo, Fornebu Airport, 18.7 nm (34.6 km) SE. Retrieved 2020/06/01 07:50 UTC (15 minutes ago):

ENFB 010750Z AUTO 19021KT 9999NDV FEW180/// ///// Q//// W///S/

Closest aviation forecast (TAF) to Hønefoss Heliport, Ringerike Hospital

Closest forecast is Oslo Gardermoen Airport, 25.4 nm (47.0 km) E. Retrieved 2020/06/01 06:57 UTC (1 hour ago):

TAF ENGM 010500Z 0106/0206 VRB03KT CAVOK BECMG 0113/0115 25010KT BECMG 0119/0121 01005KT